Time;durP1;ratioP1;P1;durP2;ratioP2;P2;SDS_P1;SDS_P2;PMS_P1;PMS_P2;Temp;Humidity;BMP_temperature;BMP_pressure;BME280_temperature;BME280_humidity;BME280_pressure;Samples;Min_cycle;Max_cycle;Signal;HPM_P1;HPM_P2
2024/01/06 00:00:16;;;;;;;13.00;6.60;;;;;;;2.86;93.29;95651.41;110762;1269;22280;-81
2024/01/06 00:03:09;;;;;;;12.00;6.60;;;;;;;2.90;93.32;95650.16;110746;1272;23121;-81
2024/01/06 00:05:44;;;;;;;12.60;6.70;;;;;;;2.94;93.35;95652.87;110765;1266;22173;-81
2024/01/06 00:08:21;;;;;;;9.90;6.30;;;;;;;2.98;93.19;95653.84;110733;1266;22187;-81
2024/01/06 00:10:54;;;;;;;11.60;5.70;;;;;;;3.00;93.26;95652.96;109720;1272;22538;-81
2024/01/06 00:13:36;;;;;;;11.40;5.70;;;;;;;3.04;93.28;95650.56;109368;1272;23855;-81
2024/01/06 00:16:12;;;;;;;11.30;5.90;;;;;;;3.07;93.30;95654.82;109309;1264;66610;-81
2024/01/06 00:18:48;;;;;;;10.50;5.70;;;;;;;3.06;93.10;95645.59;109356;1272;22574;-80
2024/01/06 00:21:19;;;;;;;10.90;5.90;;;;;;;3.05;92.97;95644.80;109378;1269;22548;-80
2024/01/06 00:23:52;;;;;;;10.70;5.80;;;;;;;3.06;93.14;95642.50;109376;1272;24174;-80
2024/01/06 00:26:23;;;;;;;12.70;6.70;;;;;;;3.10;93.19;95640.86;109316;1269;80513;-80
2024/01/06 00:28:58;;;;;;;18.70;9.40;;;;;;;3.13;93.09;95637.37;109348;1269;23924;-81
2024/01/06 00:31:32;;;;;;;13.60;7.20;;;;;;;3.08;92.98;95638.59;109391;1265;22630;-80
2024/01/06 00:34:03;;;;;;;15.30;8.00;;;;;;;3.03;92.96;95642.76;109383;1266;22510;-81
2024/01/06 00:36:35;;;;;;;15.70;7.50;;;;;;;2.96;92.97;95641.67;109296;1260;156692;-81
2024/01/06 00:39:10;;;;;;;18.10;8.90;;;;;;;2.92;92.99;95640.65;109396;1266;22693;-80
2024/01/06 00:41:41;;;;;;;14.70;6.80;;;;;;;2.86;93.27;95636.33;109376;1266;22520;-81
2024/01/06 00:44:12;;;;;;;16.20;7.70;;;;;;;2.88;93.46;95639.73;109405;1269;23232;-81
2024/01/06 00:46:44;;;;;;;13.10;6.80;;;;;;;2.90;93.73;95640.06;109346;1260;49598;-80
2024/01/06 00:49:15;;;;;;;13.60;6.30;;;;;;;2.95;93.85;95637.58;109362;1272;24783;-81
2024/01/06 00:51:46;;;;;;;12.70;6.30;;;;;;;3.01;93.90;95635.89;109358;1272;22580;-81
2024/01/06 00:54:17;;;;;;;11.50;6.30;;;;;;;3.07;93.88;95636.43;109398;1266;22574;-80
2024/01/06 00:56:48;;;;;;;9.10;5.30;;;;;;;3.12;93.84;95630.83;109304;1271;42703;-81
2024/01/06 00:59:23;;;;;;;10.50;5.30;;;;;;;3.14;93.73;95626.32;109374;1266;22538;-81
2024/01/06 01:02:00;;;;;;;9.00;4.70;;;;;;;3.19;93.68;95630.47;109340;1272;22531;-80
2024/01/06 01:04:34;;;;;;;10.50;5.20;;;;;;;3.22;93.63;95627.91;109358;1272;22543;-81
2024/01/06 01:07:15;;;;;;;11.00;5.90;;;;;;;3.27;93.54;95626.80;109343;1269;31111;-81
2024/01/06 01:09:50;;;;;;;12.20;6.90;;;;;;;3.28;93.59;95626.65;109425;1272;22482;-81
2024/01/06 01:12:23;;;;;;;11.40;5.90;;;;;;;3.27;93.44;95623.88;109386;1272;22555;-81
2024/01/06 01:14:55;;;;;;;15.10;8.10;;;;;;;3.22;93.45;95617.62;109394;1269;22557;-80
2024/01/06 01:17:27;;;;;;;10.10;5.60;;;;;;;3.23;93.66;95616.35;109210;1269;123950;-81
2024/01/06 01:20:02;;;;;;;10.30;5.50;;;;;;;3.25;93.61;95620.56;109271;1272;22552;-81
2024/01/06 01:22:38;;;;;;;9.00;5.20;;;;;;;3.26;93.53;95613.08;109333;1266;22471;-81
2024/01/06 01:25:12;;;;;;;12.30;6.00;;;;;;;3.29;93.65;95609.88;109352;1272;22581;-81
2024/01/06 01:27:45;;;;;;;9.20;5.30;;;;;;;3.31;93.71;95606.38;108002;1265;1778375;-80
2024/01/06 01:30:16;;;;;;;11.80;6.20;;;;;;;3.33;93.74;95603.66;109314;1272;22952;-81
2024/01/06 01:32:50;;;;;;;13.20;6.90;;;;;;;3.31;93.68;95606.06;109313;1270;22571;-81
2024/01/06 01:35:21;;;;;;;11.60;6.30;;;;;;;3.20;93.34;95605.17;109336;1267;22486;-81
2024/01/06 01:37:56;;;;;;;12.30;6.30;;;;;;;3.03;93.10;95606.42;109294;1272;1869512;-81
2024/01/06 01:40:30;;;;;;;10.50;6.20;;;;;;;2.92;93.24;95613.95;110780;1266;22397;-81
2024/01/06 01:43:07;;;;;;;8.60;5.10;;;;;;;2.89;93.59;95605.93;110799;1269;22888;-81
2024/01/06 01:45:42;;;;;;;11.00;5.50;;;;;;;2.92;93.83;95603.69;110780;1271;22162;-81
2024/01/06 01:48:18;;;;;;;11.90;5.20;;;;;;;2.96;94.11;95604.98;106643;1266;5237691;-81
2024/01/06 01:50:51;;;;;;;9.50;5.30;;;;;;;2.98;94.08;95604.62;110779;1269;22978;-81
2024/01/06 01:53:26;;;;;;;10.00;5.40;;;;;;;3.01;94.24;95601.38;110740;1271;22217;-81
2024/01/06 01:56:04;;;;;;;9.50;4.90;;;;;;;3.05;94.32;95598.46;110756;1266;22257;-81
2024/01/06 01:58:40;;;;;;;7.60;3.80;;;;;;;3.08;94.26;95595.06;110666;1272;22171;-81
2024/01/06 02:01:18;;;;;;;9.50;4.30;;;;;;;3.10;94.38;95599.55;110634;1270;22302;-81
2024/01/06 02:03:50;;;;;;;8.20;3.90;;;;;;;3.14;94.53;95594.54;110646;1271;22901;-81
2024/01/06 02:06:25;;;;;;;8.70;4.50;;;;;;;3.18;94.65;95593.29;110566;1269;98002;-81
2024/01/06 02:08:57;;;;;;;9.50;5.30;;;;;;;3.22;94.66;95595.86;110763;1271;22398;-81
2024/01/06 02:11:31;;;;;;;12.40;5.70;;;;;;;3.25;94.73;95595.37;110791;1264;22945;-81
2024/01/06 02:14:23;;;;;;;12.20;4.90;;;;;;;3.28;94.92;95591.70;110750;1272;22829;-81
2024/01/06 02:16:57;;;;;;;9.30;5.50;;;;;;;3.30;94.92;95587.10;110708;1266;57643;-81
2024/01/06 02:19:37;;;;;;;9.40;4.70;;;;;;;3.30;94.89;95585.42;110788;1256;22166;-81
2024/01/06 02:22:14;;;;;;;7.90;4.40;;;;;;;3.30;94.69;95581.39;110763;1272;22335;-81
2024/01/06 02:24:50;;;;;;;6.90;3.90;;;;;;;3.32;94.76;95584.02;110780;1266;22178;-81
2024/01/06 02:27:23;;;;;;;7.80;4.40;;;;;;;3.35;95.04;95579.92;110684;1265;40655;-81
2024/01/06 02:30:04;;;;;;;10.10;3.90;;;;;;;3.42;95.28;95586.25;110755;1272;22168;-81
2024/01/06 02:32:41;;;;;;;9.20;4.10;;;;;;;3.48;95.59;95587.47;110761;1272;22200;-81
2024/01/06 02:35:14;;;;;;;10.20;5.40;;;;;;;3.52;95.47;95587.27;110774;1272;22347;-81
2024/01/06 02:37:48;;;;;;;11.40;5.90;;;;;;;3.52;95.33;95584.92;110704;1268;41278;-81
2024/01/06 02:40:25;;;;;;;11.40;6.00;;;;;;;3.42;94.87;95587.56;110769;1272;22369;-81
2024/01/06 02:43:06;;;;;;;9.80;5.90;;;;;;;3.37;94.81;95589.32;110780;1272;22865;-81
2024/01/06 02:45:40;;;;;;;10.40;6.10;;;;;;;3.29;94.65;95589.14;110762;1269;22294;-81
2024/01/06 02:48:14;;;;;;;9.80;4.90;;;;;;;3.28;94.94;95593.70;109363;1272;1807905;-81
2024/01/06 02:53:42;;;;;;;9.60;4.60;;;;;;;3.41;95.19;95587.14;110752;1266;22365;-81
2024/01/06 02:56:16;;;;;;;8.60;5.00;;;;;;;3.47;95.15;95584.27;110775;1269;22200;-81
2024/01/06 02:58:50;;;;;;;10.10;4.90;;;;;;;3.48;95.11;95588.66;109956;1267;23799;-81
2024/01/06 03:01:21;;;;;;;9.80;4.60;;;;;;;3.52;95.11;95583.13;109364;1269;25418;-81
2024/01/06 03:03:56;;;;;;;9.70;4.90;;;;;;;3.60;95.34;95582.10;109278;1272;23250;-81
2024/01/06 03:06:30;;;;;;;14.30;5.40;;;;;;;3.65;95.53;95581.90;107904;1272;1846545;-81
2024/01/06 03:09:06;;;;;;;25.30;8.40;;;;;;;3.70;95.71;95582.28;109367;1269;22565;-81
2024/01/06 03:11:38;;;;;;;22.60;8.10;;;;;;;3.75;95.75;95584.84;109353;1270;23483;-81
2024/01/06 03:14:18;;;;;;;20.40;6.60;;;;;;;3.80;96.00;95584.75;109350;1272;23849;-81
2024/01/06 03:16:50;;;;;;;14.40;6.00;;;;;;;3.83;95.96;95583.72;109275;1269;65415;-81
2024/01/06 03:19:26;;;;;;;17.20;6.40;;;;;;;3.84;95.87;95583.67;109376;1272;22532;-81
2024/01/06 03:21:59;;;;;;;13.60;6.80;;;;;;;3.84;95.89;95587.81;109325;1272;22573;-81
2024/01/06 03:24:32;;;;;;;21.90;7.70;;;;;;;3.83;95.81;95588.44;109370;1272;22574;-81
2024/01/06 03:27:04;;;;;;;18.50;6.20;;;;;;;3.84;96.02;95589.12;108002;1272;1790271;-81
2024/01/06 03:29:37;;;;;;;16.40;6.40;;;;;;;3.84;95.92;95582.89;109351;1272;22545;-81
2024/01/06 03:32:14;;;;;;;13.00;5.40;;;;;;;3.82;96.07;95581.05;109363;1272;22530;-81
2024/01/06 03:34:48;;;;;;;11.40;5.70;;;;;;;3.82;95.78;95583.04;109375;1272;22491;-81
2024/01/06 03:37:30;;;;;;;10.20;5.80;;;;;;;3.77;95.45;95581.14;107808;1265;2012826;-81
2024/01/06 03:40:05;;;;;;;13.40;5.90;;;;;;;3.69;95.63;95579.30;109386;1272;22549;-81
2024/01/06 03:42:48;;;;;;;7.40;4.70;;;;;;;3.69;95.61;95581.81;109371;1269;22569;-81
2024/01/06 03:45:25;;;;;;;7.80;4.60;;;;;;;3.67;95.69;95578.82;109408;1269;22548;-81
2024/01/06 03:48:01;;;;;;;;;;;;;;;3.68;95.66;95577.35;109283;1272;139441;-81
2024/01/06 03:50:35;;;;;;;7.90;4.00;;;;;;;3.71;96.00;95570.70;109361;1272;25335;-81
2024/01/06 03:53:10;;;;;;;8.60;4.70;;;;;;;3.76;95.93;95570.95;109384;1272;22940;-81
2024/01/06 03:55:43;;;;;;;8.60;5.40;;;;;;;3.81;95.97;95564.73;109360;1262;22521;-81
2024/01/06 03:58:19;;;;;;;10.70;5.40;;;;;;;3.79;95.95;95564.05;109316;1272;57237;-81
2024/01/06 04:01:03;;;;;;;9.60;5.30;;;;;;;3.67;95.36;95560.15;109325;1272;22591;-81
2024/01/06 04:03:34;;;;;;;10.00;4.90;;;;;;;3.52;95.34;95561.70;109348;1272;22540;-81
2024/01/06 04:06:09;;;;;;;9.00;4.10;;;;;;;3.49;95.89;95559.59;109420;1272;22585;-81
2024/01/06 04:08:42;;;;;;;7.80;4.00;;;;;;;3.54;96.54;95556.30;109313;1267;46878;-81
2024/01/06 04:11:19;;;;;;;8.10;4.30;;;;;;;3.62;96.91;95560.88;109391;1272;23325;-81
2024/01/06 04:13:50;;;;;;;10.40;5.90;;;;;;;3.68;97.17;95558.06;109327;1269;22473;-81
2024/01/06 04:16:24;;;;;;;8.30;4.70;;;;;;;3.67;96.91;95561.05;109386;1269;22660;-81
2024/01/06 04:18:59;;;;;;;8.30;5.10;;;;;;;3.66;97.10;95562.92;109333;1272;22565;-81
2024/01/06 04:21:34;;;;;;;9.40;4.30;;;;;;;3.70;97.37;95561.32;109393;1272;23116;-80
2024/01/06 04:24:16;;;;;;;9.40;4.90;;;;;;;3.79;97.74;95566.98;109377;1272;25971;-81
2024/01/06 04:26:52;;;;;;;9.40;5.40;;;;;;;3.88;97.77;95567.15;109345;1270;65456;-81
2024/01/06 04:29:26;;;;;;;11.70;4.90;;;;;;;3.95;97.96;95565.43;109379;1272;22650;-81
2024/01/06 04:32:04;;;;;;;8.00;4.00;;;;;;;4.01;97.87;95561.86;109405;1272;24875;-81
2024/01/06 04:34:38;;;;;;;7.30;4.00;;;;;;;4.03;97.72;95566.01;109419;1251;22834;-81
2024/01/06 04:37:09;;;;;;;8.40;4.80;;;;;;;4.04;97.80;95560.77;107948;1251;1891874;-81
2024/01/06 04:39:41;;;;;;;8.80;5.30;;;;;;;4.07;97.73;95565.58;109421;1270;22544;-81
2024/01/06 04:42:14;;;;;;;8.60;4.70;;;;;;;4.09;97.66;95571.90;109375;1272;22543;-81
2024/01/06 04:44:47;;;;;;;10.10;4.50;;;;;;;4.05;97.64;95576.34;109384;1269;23029;-81
2024/01/06 04:47:20;;;;;;;8.90;4.60;;;;;;;4.03;97.84;95576.91;109223;1272;151964;-81
2024/01/06 04:49:52;;;;;;;5.00;3.50;;;;;;;4.07;98.05;95574.65;109383;1272;24155;-81
2024/01/06 04:52:24;;;;;;;7.60;3.90;;;;;;;4.12;98.33;95577.66;109389;1265;22561;-81
2024/01/06 04:55:02;;;;;;;9.40;5.30;;;;;;;4.17;98.42;95579.59;109325;1272;22605;-81
2024/01/06 04:57:37;;;;;;;11.30;6.30;;;;;;;4.17;98.41;95575.55;109289;1273;54510;-81
2024/01/06 05:00:17;;;;;;;9.00;4.60;;;;;;;4.10;97.91;95577.02;109398;1272;22535;-81
2024/01/06 05:02:47;;;;;;;;;;;;;;;3.97;97.93;95578.39;109395;1272;22543;-81
2024/01/06 05:05:20;;;;;;;7.80;4.30;;;;;;;3.92;98.25;95581.93;109365;1260;22540;-81
2024/01/06 05:07:56;;;;;;;10.20;5.30;;;;;;;3.90;98.47;95585.03;105116;1263;5492553;-81
2024/01/06 05:10:44;;;;;;;15.50;6.90;;;;;;;3.90;98.82;95590.06;109321;1272;22527;-82
2024/01/06 05:13:23;;;;;;;26.50;12.90;;;;;;;3.90;98.96;95593.20;109321;1260;22538;-81
2024/01/06 05:15:59;;;;;;;32.70;14.90;;;;;;;3.91;99.21;95595.09;109401;1269;22591;-81
2024/01/06 05:18:37;;;;;;;19.20;9.90;;;;;;;3.88;99.44;95587.85;109200;1272;54770;-82
2024/01/06 05:21:16;;;;;;;18.00;8.60;;;;;;;3.97;99.78;95593.96;109450;1272;22545;-81
2024/01/06 05:24:14;;;;;;;13.50;6.10;;;;;;;4.02;99.96;95603.03;109412;1272;22513;-81
2024/01/06 05:26:55;;;;;;;10.20;4.50;;;;;;;4.09;100.00;95600.16;109323;1270;55751;-81
2024/01/06 05:29:44;;;;;;;9.50;3.70;;;;;;;4.17;100.00;95594.54;109339;1272;25335;-81
2024/01/06 05:32:22;;;;;;;5.80;3.20;;;;;;;4.25;100.00;95597.33;109366;1272;22033;-81
2024/01/06 05:35:00;;;;;;;17.30;7.50;;;;;;;4.30;100.00;95591.23;109348;1272;22517;-81
2024/01/06 05:37:50;;;;;;;20.50;11.40;;;;;;;4.24;100.00;95597.64;107423;1269;2549898;-82
2024/01/06 05:40:40;;;;;;;17.30;9.40;;;;;;;4.11;99.98;95605.10;109378;1267;24330;-82
2024/01/06 05:43:18;;;;;;;16.90;9.10;;;;;;;3.99;99.88;95610.53;109357;1272;22613;-81
2024/01/06 05:45:52;;;;;;;17.30;9.10;;;;;;;3.92;99.93;95610.88;109305;1272;22552;-82
2024/01/06 05:48:31;;;;;;;18.30;10.40;;;;;;;3.90;100.00;95615.08;109346;1269;72638;-81
2024/01/06 05:51:12;;;;;;;18.90;10.60;;;;;;;3.89;100.00;95616.75;109397;1272;24211;-82
2024/01/06 05:53:55;;;;;;;14.70;6.70;;;;;;;3.92;100.00;95616.08;109377;1272;24005;-82
2024/01/06 05:56:34;;;;;;;12.10;6.50;;;;;;;3.99;100.00;95615.41;109352;1272;22609;-81
2024/01/06 05:59:14;;;;;;;10.30;5.00;;;;;;;4.04;100.00;95619.39;105413;1266;5081617;-81
2024/01/06 06:01:51;;;;;;;9.30;4.40;;;;;;;4.10;100.00;95617.59;109351;1272;25435;-81
2024/01/06 06:04:31;;;;;;;13.90;8.00;;;;;;;4.14;100.00;95615.11;109369;1272;22545;-81
2024/01/06 06:07:04;;;;;;;17.30;9.90;;;;;;;4.16;100.00;95617.27;109324;1269;95271;-82
2024/01/06 06:09:53;;;;;;;11.90;7.00;;;;;;;4.14;100.00;95617.73;109409;1270;22546;-81
2024/01/06 06:12:40;;;;;;;22.50;13.50;;;;;;;4.15;100.00;95618.15;109358;1272;22686;-82
2024/01/06 06:15:10;;;;;;;;;;;;;;;4.14;100.00;95619.83;109432;1272;22720;-82
2024/01/06 06:17:47;;;;;;;16.40;9.80;;;;;;;4.10;100.00;95621.72;109815;1266;54762;-82
2024/01/06 06:20:33;;;;;;;15.80;8.50;;;;;;;4.07;100.00;95625.86;110763;1271;22371;-82
2024/01/06 06:23:24;;;;;;;11.50;6.20;;;;;;;4.04;100.00;95624.48;110683;1272;22221;-82
2024/01/06 06:26:13;;;;;;;8.40;4.30;;;;;;;4.02;100.00;95619.19;110718;1272;21972;-82
2024/01/06 06:28:50;;;;;;;8.80;5.20;;;;;;;4.02;100.00;95620.86;109104;1267;2049664;-82
2024/01/06 06:31:36;;;;;;;9.70;5.00;;;;;;;4.08;100.00;95621.29;110781;1272;22778;-82
2024/01/06 06:34:17;;;;;;;10.70;6.60;;;;;;;4.13;100.00;95623.88;110728;1267;22312;-82
2024/01/06 06:37:12;;;;;;;8.70;4.60;;;;;;;4.09;100.00;95626.02;110760;1271;22125;-82
2024/01/06 06:39:59;;;;;;;;;;;;;;;;;;;;;
2024/01/06 06:42:49;;;;;;;4.60;2.30;;;;;;;4.07;100.00;95625.02;110722;1267;22181;-82
2024/01/06 06:45:38;;;;;;;6.10;3.30;;;;;;;4.07;100.00;95624.95;110634;1267;22192;-82
2024/01/06 06:48:32;;;;;;;6.30;3.20;;;;;;;4.04;100.00;95623.80;110654;1267;75776;-82
2024/01/06 06:51:16;;;;;;;5.30;2.90;;;;;;;4.07;100.00;95625.79;110709;1267;22280;-82
2024/01/06 06:54:00;;;;;;;8.30;3.20;;;;;;;4.09;100.00;95630.06;110718;1272;22255;-82
2024/01/06 06:56:49;;;;;;;7.50;3.70;;;;;;;4.15;100.00;95629.54;110723;1272;22149;-82
2024/01/06 06:59:36;;;;;;;6.20;3.50;;;;;;;4.20;100.00;95630.21;105491;1271;5057287;-82
2024/01/06 07:02:17;;;;;;;21.00;11.80;;;;;;;4.25;100.00;95635.64;109372;1267;24250;-81
2024/01/06 07:05:04;;;;;;;17.10;9.90;;;;;;;4.23;100.00;95634.36;110733;1271;22385;-82
2024/01/06 07:08:23;;;;;;;18.00;9.70;;;;;;;4.20;100.00;95640.02;110672;1272;62410;-82
2024/01/06 07:11:01;;;;;;;19.50;9.90;;;;;;;4.22;100.00;95639.52;109110;1275;24241;-81
2024/01/06 07:13:38;;;;;;;12.20;6.00;;;;;;;4.21;100.00;95637.09;109146;1275;22543;-81
2024/01/06 07:16:18;;;;;;;6.50;3.50;;;;;;;4.22;100.00;95640.08;109168;1275;22510;-81
2024/01/06 07:19:06;;;;;;;8.10;3.00;;;;;;;4.27;100.00;95642.56;109036;1273;55069;-81
2024/01/06 07:21:46;;;;;;;7.50;2.90;;;;;;;4.31;100.00;95645.86;109126;1273;22577;-81
2024/01/06 07:24:23;;;;;;;8.00;4.20;;;;;;;4.34;100.00;95645.60;109143;1275;22529;-81
2024/01/06 07:27:11;;;;;;;8.60;4.30;;;;;;;4.38;100.00;95645.04;109090;1267;22541;-81
2024/01/06 07:29:50;;;;;;;7.50;3.70;;;;;;;4.35;100.00;95640.63;109107;1275;22666;-81
2024/01/06 07:32:25;;;;;;;7.10;3.40;;;;;;;4.45;100.00;95650.21;109166;1275;22743;-81
2024/01/06 07:35:12;;;;;;;39.10;18.40;;;;;;;4.51;100.00;95650.96;109083;1272;25517;-81
2024/01/06 07:37:53;;;;;;;;;;;;;;;;;;;;;
2024/01/06 07:40:40;;;;;;;41.20;18.90;;;;;;;4.59;100.00;95656.05;109127;1274;22904;-81
2024/01/06 07:43:11;;;;;;;29.90;14.60;;;;;;;4.59;100.00;95657.36;109070;1270;22637;-81
2024/01/06 07:45:48;;;;;;;21.50;11.60;;;;;;;4.53;100.00;95659.16;109108;1253;23019;-81
2024/01/06 07:48:38;;;;;;;15.50;8.50;;;;;;;4.51;100.00;95662.25;106467;1272;4422980;-82
2024/01/06 07:51:38;;;;;;;22.60;10.60;;;;;;;4.53;100.00;95663.41;110696;1267;22468;-82
2024/01/06 07:54:17;;;;;;;23.00;12.20;;;;;;;4.56;100.00;95663.25;110603;1272;22274;-82
2024/01/06 07:57:07;;;;;;;26.90;12.40;;;;;;;4.59;100.00;95665.45;110724;1269;22284;-82
2024/01/06 07:59:45;;;;;;;18.50;9.30;;;;;;;4.64;100.00;95666.70;108730;1272;2509864;-82
2024/01/06 08:02:18;;;;;;;11.90;6.00;;;;;;;4.70;100.00;95665.86;110690;1272;22179;-82
2024/01/06 08:05:12;;;;;;;10.00;6.10;;;;;;;4.79;100.00;95668.54;110733;1267;22241;-82
2024/01/06 08:10:52;;;;;;;6.40;3.20;;;;;;;4.91;100.00;95675.44;110741;1267;22937;-82
2024/01/06 08:13:42;;;;;;;6.00;3.20;;;;;;;4.92;100.00;95672.94;110696;1272;22232;-81
2024/01/06 08:16:22;;;;;;;7.70;4.00;;;;;;;4.94;100.00;95679.67;110718;1270;22153;-81
2024/01/06 08:19:11;;;;;;;8.10;4.20;;;;;;;4.96;100.00;95680.81;110672;1272;60687;-81
2024/01/06 08:21:58;;;;;;;8.60;3.90;;;;;;;4.99;100.00;95678.12;109927;1272;22579;-82
2024/01/06 08:24:36;;;;;;;15.20;9.20;;;;;;;5.04;100.00;95679.05;109384;1254;22516;-81
2024/01/06 08:27:14;;;;;;;14.40;8.60;;;;;;;5.06;100.00;95681.00;109347;1267;22531;-82
2024/01/06 08:29:53;;;;;;;11.20;7.50;;;;;;;5.11;100.00;95678.31;107430;1265;2568142;-81
2024/01/06 08:32:41;;;;;;;13.90;6.70;;;;;;;5.18;100.00;95681.60;109372;1270;22536;-81
2024/01/06 08:35:46;;;;;;;12.80;8.10;;;;;;;5.22;100.00;95688.28;109401;1250;23424;-81
2024/01/06 08:38:33;;;;;;;10.60;4.90;;;;;;;5.27;100.00;95682.84;105426;1265;5253314;-82
2024/01/06 08:41:12;;;;;;;7.30;4.10;;;;;;;5.34;100.00;95681.83;109343;1272;22475;-82
2024/01/06 08:43:48;;;;;;;9.80;6.30;;;;;;;5.45;100.00;95676.06;109343;1267;22638;-81
2024/01/06 08:46:24;;;;;;;11.50;6.90;;;;;;;5.59;100.00;95674.48;109359;1262;22579;-81
2024/01/06 08:48:56;;;;;;;10.80;6.80;;;;;;;5.69;100.00;95677.20;109371;1266;41479;-82
2024/01/06 08:51:43;;;;;;;9.50;6.40;;;;;;;5.71;100.00;95674.91;109352;1269;24305;-81
2024/01/06 08:54:21;;;;;;;;;;;;;;;5.74;100.00;95671.38;109388;1272;25425;-81
2024/01/06 08:57:01;;;;;;;10.90;6.60;;;;;;;5.83;100.00;95672.86;109365;1272;22562;-81
2024/01/06 08:59:47;;;;;;;12.90;8.10;;;;;;;5.92;100.00;95669.07;105265;1266;5405479;-81
2024/01/06 09:02:22;;;;;;;13.60;8.60;;;;;;;5.97;100.00;95669.98;109351;1266;23140;-81
2024/01/06 09:05:04;;;;;;;14.40;9.60;;;;;;;5.97;100.00;95671.63;109377;1266;22833;-81
2024/01/06 09:07:40;;;;;;;15.10;9.50;;;;;;;6.01;100.00;95667.80;109413;1272;22955;-81
2024/01/06 09:10:16;;;;;;;15.00;9.10;;;;;;;6.16;100.00;95667.02;109255;1270;25327;-82
2024/01/06 09:12:55;;;;;;;12.20;8.90;;;;;;;6.25;100.00;95670.34;109216;1262;22514;-82
2024/01/06 09:15:31;;;;;;;14.70;9.60;;;;;;;6.32;100.00;95661.14;109230;1272;23894;-82
2024/01/06 09:18:08;;;;;;;17.50;10.10;;;;;;;6.38;100.00;95658.63;109214;1270;43990;-81
2024/01/06 09:20:47;;;;;;;12.20;8.80;;;;;;;6.49;100.00;95654.69;109411;1272;22568;-81
2024/01/06 09:23:22;;;;;;;11.70;7.40;;;;;;;6.63;100.00;95650.42;109339;1272;22542;-82
2024/01/06 09:26:01;;;;;;;10.10;7.20;;;;;;;6.82;100.00;95655.84;109393;1267;22501;-82
2024/01/06 09:28:39;;;;;;;12.90;8.80;;;;;;;6.92;100.00;95651.45;105485;1269;5133317;-82
2024/01/06 09:31:17;;;;;;;16.20;11.50;;;;;;;6.90;100.00;95658.24;109361;1272;22564;-81
2024/01/06 09:33:52;;;;;;;13.20;8.50;;;;;;;6.82;100.00;95656.27;109310;1269;22554;-82
2024/01/06 09:36:30;;;;;;;13.50;7.50;;;;;;;6.74;100.00;95655.69;109377;1272;22586;-82
2024/01/06 09:39:10;;;;;;;13.20;9.30;;;;;;;6.67;100.00;95656.09;109304;1271;44575;-82
2024/01/06 09:41:48;;;;;;;13.00;8.90;;;;;;;6.53;100.00;95656.04;109363;1271;22565;-81
2024/01/06 09:44:38;;;;;;;13.80;9.40;;;;;;;6.43;100.00;95655.52;109338;1272;22518;-82
2024/01/06 09:47:24;;;;;;;11.00;7.60;;;;;;;6.41;100.00;95654.64;109230;1266;22531;-81
2024/01/06 09:50:14;;;;;;;13.60;7.50;;;;;;;6.45;100.00;95647.86;107835;1270;1992995;-82
2024/01/06 09:53:08;;;;;;;13.40;7.80;;;;;;;6.48;100.00;95648.02;109333;1272;22550;-82
2024/01/06 09:55:41;;;;;;;12.90;8.30;;;;;;;6.52;100.00;95645.83;109368;1272;22649;-82
2024/01/06 09:58:29;;;;;;;14.10;10.00;;;;;;;6.55;100.00;95643.31;105430;1264;5180263;-82
2024/01/06 10:01:08;;;;;;;13.70;9.80;;;;;;;6.59;100.00;95643.29;109357;1266;23407;-82
2024/01/06 10:03:42;;;;;;;15.20;9.00;;;;;;;6.60;100.00;95643.80;109364;1272;22576;-82
2024/01/06 10:06:16;;;;;;;13.00;7.80;;;;;;;6.60;100.00;95641.08;109262;1267;22473;-81
2024/01/06 10:09:00;;;;;;;12.40;8.80;;;;;;;6.65;100.00;95640.41;109237;1272;116435;-82
2024/01/06 10:11:41;;;;;;;13.20;8.20;;;;;;;6.68;100.00;95638.95;109384;1272;25272;-82
2024/01/06 10:14:19;;;;;;;13.40;8.80;;;;;;;6.75;100.00;95634.46;109338;1271;22701;-82
2024/01/06 10:17:04;;;;;;;13.50;8.70;;;;;;;6.86;100.00;95629.77;109366;1272;25293;-82
2024/01/06 10:19:39;;;;;;;15.60;9.30;;;;;;;6.94;100.00;95624.23;107366;1271;2641838;-82
2024/01/06 10:22:12;;;;;;;13.30;8.80;;;;;;;7.00;100.00;95621.68;109363;1266;22571;-82
2024/01/06 10:24:48;;;;;;;13.80;9.00;;;;;;;7.02;100.00;95621.52;109364;1272;22559;-82
2024/01/06 10:27:36;;;;;;;14.10;9.30;;;;;;;7.12;100.00;95627.61;109377;1269;22529;-82
2024/01/06 10:30:14;;;;;;;14.00;8.60;;;;;;;7.21;100.00;95624.90;105233;1269;5317599;-82
2024/01/06 10:33:01;;;;;;;12.00;8.20;;;;;;;7.27;100.00;95626.19;109376;1272;22580;-82
2024/01/06 10:35:34;;;;;;;14.60;9.10;;;;;;;7.34;100.00;95621.55;109368;1271;24056;-82
2024/01/06 10:38:09;;;;;;;18.30;11.20;;;;;;;7.36;100.00;95619.67;109366;1266;22547;-82
2024/01/06 10:41:06;;;;;;;14.10;10.50;;;;;;;7.34;100.00;95608.92;109331;1266;22631;-82
2024/01/06 10:43:46;;;;;;;16.40;10.50;;;;;;;7.41;100.00;95615.44;109344;1272;22991;-82
2024/01/06 10:46:26;;;;;;;13.50;10.10;;;;;;;7.41;100.00;95613.96;109243;1272;22653;-81
2024/01/06 10:49:01;;;;;;;14.40;9.20;;;;;;;7.49;100.00;95607.96;109357;1272;57147;-82
2024/01/06 10:51:38;;;;;;;23.90;17.40;;;;;;;7.59;100.00;95610.37;109387;1264;25406;-82
2024/01/06 10:54:16;;;;;;;19.30;12.30;;;;;;;7.63;100.00;95610.15;109383;1265;22660;-82
2024/01/06 10:56:55;;;;;;;19.40;12.60;;;;;;;7.70;100.00;95609.48;109363;1266;24231;-82
2024/01/06 10:59:36;;;;;;;32.10;24.60;;;;;;;7.66;100.00;95611.74;109305;1272;50262;-82
2024/01/06 11:02:23;;;;;;;31.30;23.50;;;;;;;7.32;100.00;95613.16;109342;1254;22711;-81
2024/01/06 11:05:02;;;;;;;36.70;27.40;;;;;;;7.00;100.00;95609.92;109412;1272;24365;-81
2024/01/06 11:07:36;;;;;;;37.60;27.90;;;;;;;6.61;100.00;95611.56;109248;1265;22527;-81
2024/01/06 11:10:16;;;;;;;35.60;27.10;;;;;;;6.30;100.00;95611.66;108113;1266;1653561;-81
2024/01/06 11:13:01;;;;;;;42.20;30.50;;;;;;;6.02;100.00;95611.17;109358;1263;22569;-81
2024/01/06 11:15:52;;;;;;;41.60;30.20;;;;;;;5.64;100.00;95610.30;109379;1272;25411;-81
2024/01/06 11:18:42;;;;;;;40.80;29.80;;;;;;;5.44;100.00;95611.09;105493;1266;5061356;-81
2024/01/06 11:21:45;;;;;;;41.90;31.20;;;;;;;5.27;100.00;95615.48;109357;1257;22618;-81
2024/01/06 11:24:26;;;;;;;42.70;30.00;;;;;;;5.03;100.00;95616.02;109005;1276;22524;-81
2024/01/06 11:27:03;;;;;;;39.70;29.70;;;;;;;4.89;100.00;95615.73;109023;1276;25346;-81
2024/01/06 11:29:37;;;;;;;41.60;29.20;;;;;;;4.76;100.00;95613.87;108940;1274;61218;-81
2024/01/06 11:32:47;;;;;;;36.70;28.20;;;;;;;4.69;100.00;95616.41;108995;1253;22536;-81
2024/01/06 11:35:23;;;;;;;42.20;30.30;;;;;;;4.73;100.00;95619.07;109019;1276;22595;-81
2024/01/06 11:38:00;;;;;;;45.40;32.60;;;;;;;4.73;100.00;95619.86;108998;1276;24533;-81
2024/01/06 11:40:42;;;;;;;41.90;29.40;;;;;;;4.56;100.00;95622.61;106661;1272;3073306;-81
2024/01/06 11:43:19;;;;;;;35.70;27.40;;;;;;;4.41;100.00;95623.05;109289;1272;22561;-81
2024/01/06 11:46:00;;;;;;;41.80;28.40;;;;;;;4.40;100.00;95626.03;109392;1272;22528;-81
2024/01/06 11:48:45;;;;;;;44.70;31.60;;;;;;;4.37;100.00;95621.84;110678;1271;22551;-81
2024/01/06 11:51:28;;;;;;;46.50;31.40;;;;;;;4.16;100.00;95625.39;110618;1257;22891;-81
2024/01/06 11:54:05;;;;;;;41.30;29.30;;;;;;;3.96;100.00;95627.93;110605;1272;22204;-81
2024/01/06 11:57:10;;;;;;;42.90;29.30;;;;;;;3.80;100.00;95633.36;110599;1272;22234;-81
2024/01/06 11:59:45;;;;;;;39.50;28.20;;;;;;;3.59;100.00;95632.77;110586;1265;70827;-81
2024/01/06 12:02:28;;;;;;;38.30;26.30;;;;;;;3.61;100.00;95633.56;110704;1271;22268;-81
2024/01/06 12:05:06;;;;;;;36.10;25.10;;;;;;;3.65;100.00;95638.88;110702;1271;22959;-81
2024/01/06 12:07:44;;;;;;;39.60;27.50;;;;;;;3.66;100.00;95639.30;110754;1266;22221;-82
2024/01/06 12:10:21;;;;;;;37.60;27.20;;;;;;;3.52;100.00;95642.40;110556;1271;46111;-81
2024/01/06 12:13:02;;;;;;;40.30;27.90;;;;;;;3.32;100.00;95645.05;110749;1271;22880;-81
2024/01/06 12:15:48;;;;;;;40.20;28.80;;;;;;;3.25;100.00;95650.83;110727;1269;22420;-81
2024/01/06 12:18:26;;;;;;;40.10;26.50;;;;;;;3.08;100.00;95651.26;110718;1272;22365;-81
2024/01/06 12:20:59;;;;;;;40.50;26.10;;;;;;;3.10;100.00;95650.64;110708;1272;37504;-81
2024/01/06 12:23:33;;;;;;;45.60;30.50;;;;;;;3.15;100.00;95659.64;110720;1265;22551;-81